ADDS METAR Data INFO
IDs: Format: Raw Decoded Include TAF

Data at: 0855 UTC 18 Aug 2017

KWVI 180851Z AUTO 00000KT 10SM OVC005 16/14 A3002 RMK AO2 TSNO

KSNS 180753Z AUTO 29004KT 10SM CLR 16/14 A3002 RMK AO2 SLP173 T01610139 402220156

KMRY 180754Z AUTO 00000KT 10SM CLR 14/12 A3003 RMK AO2 SLP179 T01440117 402170144

KSJC 180753Z AUTO 31005KT 10SM CLR 18/15 A3000 RMK AO2 SLP159 T01780150 402720156

KSFO 180756Z 28011KT 10SM FEW008 18/13 A3000 RMK AO2 SLP159 T01780133 402220156 $

KHAF 180835Z AUTO 00000KT 7SM OVC008 15/ A2999 RMK AO2